sensor_id;sensor_type;location;lat;lon;timestamp;P1;durP1;ratioP1;P2;durP2;ratioP2
47009;SDS011;59230;54.164;-3.124;2022-09-16T00:00:40;6.35;;;1.60;;
47009;SDS011;59230;54.164;-3.124;2022-09-16T00:03:07;16.17;;;4.80;;
47009;SDS011;59230;54.164;-3.124;2022-09-16T00:05:32;13.75;;;3.40;;
47009;SDS011;59230;54.164;-3.124;2022-09-16T00:07:59;9.27;;;1.98;;
47009;SDS011;59230;54.164;-3.124;2022-09-16T00:10:24;9.48;;;1.40;;
47009;SDS011;59230;54.164;-3.124;2022-09-16T00:12:49;4.45;;;1.00;;
47009;SDS011;59230;54.164;-3.124;2022-09-16T00:15:15;5.30;;;0.95;;
47009;SDS011;59230;54.164;-3.124;2022-09-16T00:17:41;7.30;;;1.58;;
47009;SDS011;59230;54.164;-3.124;2022-09-16T00:20:07;8.05;;;1.95;;
47009;SDS011;59230;54.164;-3.124;2022-09-16T00:22:33;4.97;;;2.00;;
47009;SDS011;59230;54.164;-3.124;2022-09-16T00:24:59;8.65;;;1.63;;
47009;SDS011;59230;54.164;-3.124;2022-09-16T00:27:24;3.00;;;1.20;;
47009;SDS011;59230;54.164;-3.124;2022-09-16T00:29:50;3.17;;;1.15;;
47009;SDS011;59230;54.164;-3.124;2022-09-16T00:38:31;15.80;;;4.18;;
47009;SDS011;59230;54.164;-3.124;2022-09-16T00:40:56;13.55;;;3.58;;
47009;SDS011;59230;54.164;-3.124;2022-09-16T00:43:22;10.48;;;2.72;;
47009;SDS011;59230;54.164;-3.124;2022-09-16T00:45:48;8.38;;;2.55;;
47009;SDS011;59230;54.164;-3.124;2022-09-16T00:48:21;12.55;;;2.30;;
47009;SDS011;59230;54.164;-3.124;2022-09-16T00:50:49;9.98;;;2.47;;
47009;SDS011;59230;54.164;-3.124;2022-09-16T00:53:18;8.25;;;2.63;;
47009;SDS011;59230;54.164;-3.124;2022-09-16T00:55:55;10.88;;;3.05;;
47009;SDS011;59230;54.164;-3.124;2022-09-16T00:58:24;20.85;;;6.35;;
47009;SDS011;59230;54.164;-3.124;2022-09-16T01:00:54;14.70;;;3.38;;
47009;SDS011;59230;54.164;-3.124;2022-09-16T01:03:19;38.22;;;12.05;;
47009;SDS011;59230;54.164;-3.124;2022-09-16T01:05:45;25.25;;;9.90;;
47009;SDS011;59230;54.164;-3.124;2022-09-16T01:08:11;15.27;;;4.43;;
47009;SDS011;59230;54.164;-3.124;2022-09-16T01:10:36;13.32;;;1.88;;
47009;SDS011;59230;54.164;-3.124;2022-09-16T01:13:05;8.30;;;1.60;;
47009;SDS011;59230;54.164;-3.124;2022-09-16T01:15:37;7.70;;;1.80;;
47009;SDS011;59230;54.164;-3.124;2022-09-16T01:39:52;11.50;;;2.92;;
47009;SDS011;59230;54.164;-3.124;2022-09-16T01:42:42;12.07;;;3.22;;
47009;SDS011;59230;54.164;-3.124;2022-09-16T01:45:32;5.38;;;1.80;;
47009;SDS011;59230;54.164;-3.124;2022-09-16T01:48:07;6.00;;;1.27;;
47009;SDS011;59230;54.164;-3.124;2022-09-16T01:50:39;3.30;;;0.88;;
47009;SDS011;59230;54.164;-3.124;2022-09-16T01:55:50;26.90;;;10.20;;
47009;SDS011;59230;54.164;-3.124;2022-09-16T01:58:20;24.38;;;9.60;;
47009;SDS011;59230;54.164;-3.124;2022-09-16T02:00:50;33.10;;;13.60;;
47009;SDS011;59230;54.164;-3.124;2022-09-16T02:03:19;41.20;;;16.67;;
47009;SDS011;59230;54.164;-3.124;2022-09-16T02:08:23;22.30;;;9.15;;
47009;SDS011;59230;54.164;-3.124;2022-09-16T02:10:54;29.95;;;11.18;;
47009;SDS011;59230;54.164;-3.124;2022-09-16T02:13:32;19.58;;;7.60;;
47009;SDS011;59230;54.164;-3.124;2022-09-16T02:16:00;25.13;;;9.00;;
47009;SDS011;59230;54.164;-3.124;2022-09-16T02:18:36;19.52;;;6.65;;
47009;SDS011;59230;54.164;-3.124;2022-09-16T02:21:06;13.68;;;5.75;;
47009;SDS011;59230;54.164;-3.124;2022-09-16T02:23:38;5.85;;;2.35;;
47009;SDS011;59230;54.164;-3.124;2022-09-16T02:26:07;4.05;;;1.63;;
47009;SDS011;59230;54.164;-3.124;2022-09-16T02:28:35;2.65;;;1.25;;
47009;SDS011;59230;54.164;-3.124;2022-09-16T02:31:05;4.25;;;0.95;;
47009;SDS011;59230;54.164;-3.124;2022-09-16T02:33:43;2.72;;;0.88;;
47009;SDS011;59230;54.164;-3.124;2022-09-16T02:36:12;7.53;;;1.25;;
47009;SDS011;59230;54.164;-3.124;2022-09-16T02:38:40;6.25;;;1.92;;
47009;SDS011;59230;54.164;-3.124;2022-09-16T02:41:07;10.10;;;2.90;;
47009;SDS011;59230;54.164;-3.124;2022-09-16T02:43:38;20.88;;;8.13;;
47009;SDS011;59230;54.164;-3.124;2022-09-16T02:51:37;23.83;;;10.23;;
47009;SDS011;59230;54.164;-3.124;2022-09-16T02:54:46;23.00;;;6.55;;
47009;SDS011;59230;54.164;-3.124;2022-09-16T02:57:16;6.93;;;2.13;;
47009;SDS011;59230;54.164;-3.124;2022-09-16T02:59:42;2.92;;;1.13;;
47009;SDS011;59230;54.164;-3.124;2022-09-16T03:02:07;3.28;;;1.00;;
47009;SDS011;59230;54.164;-3.124;2022-09-16T03:04:33;2.92;;;0.68;;
47009;SDS011;59230;54.164;-3.124;2022-09-16T03:06:59;2.53;;;0.80;;
47009;SDS011;59230;54.164;-3.124;2022-09-16T03:09:25;4.05;;;1.00;;
47009;SDS011;59230;54.164;-3.124;2022-09-16T03:28:32;2.25;;;0.50;;
47009;SDS011;59230;54.164;-3.124;2022-09-16T03:33:41;4.82;;;0.70;;
47009;SDS011;59230;54.164;-3.124;2022-09-16T03:36:11;2.03;;;0.50;;
47009;SDS011;59230;54.164;-3.124;2022-09-16T03:38:38;1.33;;;0.50;;
47009;SDS011;59230;54.164;-3.124;2022-09-16T03:41:05;2.63;;;0.57;;
47009;SDS011;59230;54.164;-3.124;2022-09-16T03:43:31;2.08;;;0.55;;
47009;SDS011;59230;54.164;-3.124;2022-09-16T03:48:25;0.82;;;0.60;;
47009;SDS011;59230;54.164;-3.124;2022-09-16T03:50:53;1.52;;;0.52;;
47009;SDS011;59230;54.164;-3.124;2022-09-16T03:53:18;2.90;;;0.40;;
47009;SDS011;59230;54.164;-3.124;2022-09-16T03:55:44;1.40;;;0.65;;
47009;SDS011;59230;54.164;-3.124;2022-09-16T03:58:12;2.15;;;0.70;;
47009;SDS011;59230;54.164;-3.124;2022-09-16T04:00:37;0.85;;;0.40;;
47009;SDS011;59230;54.164;-3.124;2022-09-16T04:03:03;0.85;;;0.60;;
47009;SDS011;59230;54.164;-3.124;2022-09-16T04:05:28;2.67;;;0.50;;
47009;SDS011;59230;54.164;-3.124;2022-09-16T04:07:53;1.45;;;0.60;;
47009;SDS011;59230;54.164;-3.124;2022-09-16T04:10:21;1.20;;;0.82;;
47009;SDS011;59230;54.164;-3.124;2022-09-16T04:12:47;2.60;;;0.57;;
47009;SDS011;59230;54.164;-3.124;2022-09-16T04:15:12;1.70;;;0.55;;
47009;SDS011;59230;54.164;-3.124;2022-09-16T04:17:37;1.50;;;0.50;;
47009;SDS011;59230;54.164;-3.124;2022-09-16T04:20:03;2.25;;;0.65;;
47009;SDS011;59230;54.164;-3.124;2022-09-16T04:22:31;1.92;;;0.70;;
47009;SDS011;59230;54.164;-3.124;2022-09-16T04:24:57;2.50;;;0.45;;
47009;SDS011;59230;54.164;-3.124;2022-09-16T04:27:23;1.55;;;0.55;;
47009;SDS011;59230;54.164;-3.124;2022-09-16T04:29:48;3.72;;;0.60;;
47009;SDS011;59230;54.164;-3.124;2022-09-16T04:32:14;1.95;;;0.82;;
47009;SDS011;59230;54.164;-3.124;2022-09-16T04:34:39;1.10;;;0.70;;
47009;SDS011;59230;54.164;-3.124;2022-09-16T04:37:05;0.80;;;0.47;;
47009;SDS011;59230;54.164;-3.124;2022-09-16T04:39:31;3.40;;;0.60;;
47009;SDS011;59230;54.164;-3.124;2022-09-16T04:41:57;1.38;;;0.50;;
47009;SDS011;59230;54.164;-3.124;2022-09-16T04:44:23;2.80;;;0.60;;
47009;SDS011;59230;54.164;-3.124;2022-09-16T04:46:50;1.02;;;0.50;;
47009;SDS011;59230;54.164;-3.124;2022-09-16T04:49:16;1.13;;;0.40;;
47009;SDS011;59230;54.164;-3.124;2022-09-16T04:51:41;1.38;;;0.43;;
47009;SDS011;59230;54.164;-3.124;2022-09-16T04:54:06;1.33;;;0.40;;
47009;SDS011;59230;54.164;-3.124;2022-09-16T04:56:32;1.58;;;0.70;;
47009;SDS011;59230;54.164;-3.124;2022-09-16T04:58:58;4.50;;;1.23;;
47009;SDS011;59230;54.164;-3.124;2022-09-16T05:01:27;16.15;;;5.30;;
47009;SDS011;59230;54.164;-3.124;2022-09-16T05:03:55;11.50;;;3.53;;
47009;SDS011;59230;54.164;-3.124;2022-09-16T05:06:23;0.88;;;0.52;;
47009;SDS011;59230;54.164;-3.124;2022-09-16T05:08:50;1.92;;;0.55;;
47009;SDS011;59230;54.164;-3.124;2022-09-16T05:11:17;1.25;;;0.50;;
47009;SDS011;59230;54.164;-3.124;2022-09-16T05:13:44;1.42;;;0.50;;
47009;SDS011;59230;54.164;-3.124;2022-09-16T05:16:11;1.40;;;0.55;;
47009;SDS011;59230;54.164;-3.124;2022-09-16T05:18:38;0.40;;;0.40;;
47009;SDS011;59230;54.164;-3.124;2022-09-16T05:21:06;0.80;;;0.50;;
47009;SDS011;59230;54.164;-3.124;2022-09-16T05:23:33;0.93;;;0.60;;
47009;SDS011;59230;54.164;-3.124;2022-09-16T05:26:03;1.70;;;0.55;;
47009;SDS011;59230;54.164;-3.124;2022-09-16T05:28:29;2.58;;;0.60;;
47009;SDS011;59230;54.164;-3.124;2022-09-16T05:30:54;1.30;;;0.50;;
47009;SDS011;59230;54.164;-3.124;2022-09-16T05:33:20;5.50;;;1.40;;
47009;SDS011;59230;54.164;-3.124;2022-09-16T05:35:46;5.03;;;1.70;;
47009;SDS011;59230;54.164;-3.124;2022-09-16T05:38:11;21.77;;;6.95;;
47009;SDS011;59230;54.164;-3.124;2022-09-16T05:40:37;29.77;;;11.13;;
47009;SDS011;59230;54.164;-3.124;2022-09-16T05:43:03;23.45;;;7.63;;
47009;SDS011;59230;54.164;-3.124;2022-09-16T05:45:28;16.30;;;6.82;;
47009;SDS011;59230;54.164;-3.124;2022-09-16T05:47:55;12.85;;;4.18;;
47009;SDS011;59230;54.164;-3.124;2022-09-16T05:50:21;15.00;;;5.03;;
47009;SDS011;59230;54.164;-3.124;2022-09-16T05:52:47;13.20;;;5.20;;
47009;SDS011;59230;54.164;-3.124;2022-09-16T05:55:13;14.40;;;5.10;;
47009;SDS011;59230;54.164;-3.124;2022-09-16T05:57:38;6.38;;;2.00;;
47009;SDS011;59230;54.164;-3.124;2022-09-16T06:00:04;2.10;;;1.08;;
47009;SDS011;59230;54.164;-3.124;2022-09-16T06:02:30;3.25;;;0.73;;
47009;SDS011;59230;54.164;-3.124;2022-09-16T06:04:56;2.65;;;0.90;;
47009;SDS011;59230;54.164;-3.124;2022-09-16T06:07:21;2.20;;;0.98;;
47009;SDS011;59230;54.164;-3.124;2022-09-16T06:09:47;1.80;;;0.88;;
47009;SDS011;59230;54.164;-3.124;2022-09-16T06:12:13;5.75;;;1.60;;
47009;SDS011;59230;54.164;-3.124;2022-09-16T06:14:39;6.07;;;1.20;;
47009;SDS011;59230;54.164;-3.124;2022-09-16T06:17:04;10.55;;;4.43;;
47009;SDS011;59230;54.164;-3.124;2022-09-16T06:19:30;16.63;;;4.95;;
47009;SDS011;59230;54.164;-3.124;2022-09-16T06:21:55;11.02;;;4.15;;
47009;SDS011;59230;54.164;-3.124;2022-09-16T06:24:21;4.00;;;1.63;;
47009;SDS011;59230;54.164;-3.124;2022-09-16T06:26:46;5.25;;;0.70;;
47009;SDS011;59230;54.164;-3.124;2022-09-16T06:29:13;1.55;;;0.70;;
47009;SDS011;59230;54.164;-3.124;2022-09-16T06:31:39;4.32;;;1.17;;
47009;SDS011;59230;54.164;-3.124;2022-09-16T06:34:05;4.63;;;1.17;;
47009;SDS011;59230;54.164;-3.124;2022-09-16T06:36:33;2.63;;;1.20;;
47009;SDS011;59230;54.164;-3.124;2022-09-16T06:39:00;2.40;;;1.10;;
47009;SDS011;59230;54.164;-3.124;2022-09-16T06:41:26;1.63;;;0.70;;
47009;SDS011;59230;54.164;-3.124;2022-09-16T06:43:52;3.97;;;0.77;;
47009;SDS011;59230;54.164;-3.124;2022-09-16T06:46:21;3.17;;;0.82;;
47009;SDS011;59230;54.164;-3.124;2022-09-16T06:48:49;3.60;;;0.68;;
47009;SDS011;59230;54.164;-3.124;2022-09-16T06:51:20;3.88;;;0.80;;
47009;SDS011;59230;54.164;-3.124;2022-09-16T06:53:50;5.07;;;0.82;;
47009;SDS011;59230;54.164;-3.124;2022-09-16T06:56:17;1.20;;;0.50;;
47009;SDS011;59230;54.164;-3.124;2022-09-16T06:58:45;1.17;;;0.50;;
47009;SDS011;59230;54.164;-3.124;2022-09-16T07:01:20;2.60;;;0.60;;
47009;SDS011;59230;54.164;-3.124;2022-09-16T07:03:50;2.55;;;0.52;;
47009;SDS011;59230;54.164;-3.124;2022-09-16T07:06:17;0.60;;;0.60;;
47009;SDS011;59230;54.164;-3.124;2022-09-16T07:08:44;6.05;;;0.90;;
47009;SDS011;59230;54.164;-3.124;2022-09-16T07:11:14;1.45;;;0.50;;
47009;SDS011;59230;54.164;-3.124;2022-09-16T07:13:42;1.30;;;0.52;;
47009;SDS011;59230;54.164;-3.124;2022-09-16T07:16:09;3.40;;;0.65;;
47009;SDS011;59230;54.164;-3.124;2022-09-16T07:18:36;1.80;;;0.60;;
47009;SDS011;59230;54.164;-3.124;2022-09-16T07:21:03;1.23;;;0.65;;
47009;SDS011;59230;54.164;-3.124;2022-09-16T07:23:31;1.55;;;0.60;;
47009;SDS011;59230;54.164;-3.124;2022-09-16T07:26:03;2.17;;;0.60;;
47009;SDS011;59230;54.164;-3.124;2022-09-16T07:28:33;1.23;;;0.60;;
47009;SDS011;59230;54.164;-3.124;2022-09-16T07:31:04;2.08;;;0.60;;
47009;SDS011;59230;54.164;-3.124;2022-09-16T07:33:35;1.42;;;0.65;;
47009;SDS011;59230;54.164;-3.124;2022-09-16T07:36:02;1.35;;;0.40;;
47009;SDS011;59230;54.164;-3.124;2022-09-16T07:38:32;1.75;;;0.57;;
47009;SDS011;59230;54.164;-3.124;2022-09-16T07:41:05;1.15;;;0.40;;
47009;SDS011;59230;54.164;-3.124;2022-09-16T07:43:36;0.50;;;0.50;;
47009;SDS011;59230;54.164;-3.124;2022-09-16T07:46:03;4.32;;;0.50;;
47009;SDS011;59230;54.164;-3.124;2022-09-16T07:48:30;1.10;;;0.50;;
47009;SDS011;59230;54.164;-3.124;2022-09-16T07:51:00;0.70;;;0.50;;
47009;SDS011;59230;54.164;-3.124;2022-09-16T07:53:28;1.00;;;0.40;;
47009;SDS011;59230;54.164;-3.124;2022-09-16T07:55:55;1.30;;;0.50;;
47009;SDS011;59230;54.164;-3.124;2022-09-16T07:58:21;1.30;;;0.60;;
47009;SDS011;59230;54.164;-3.124;2022-09-16T08:00:47;0.75;;;0.50;;
47009;SDS011;59230;54.164;-3.124;2022-09-16T08:03:13;1.52;;;0.50;;
47009;SDS011;59230;54.164;-3.124;2022-09-16T08:05:39;2.88;;;0.50;;
47009;SDS011;59230;54.164;-3.124;2022-09-16T08:08:04;2.80;;;0.32;;
47009;SDS011;59230;54.164;-3.124;2022-09-16T08:10:30;1.17;;;0.40;;
47009;SDS011;59230;54.164;-3.124;2022-09-16T08:12:55;2.40;;;0.70;;
47009;SDS011;59230;54.164;-3.124;2022-09-16T08:15:54;1.15;;;0.60;;
47009;SDS011;59230;54.164;-3.124;2022-09-16T08:18:18;1.67;;;0.40;;
47009;SDS011;59230;54.164;-3.124;2022-09-16T08:20:55;1.75;;;0.45;;
47009;SDS011;59230;54.164;-3.124;2022-09-16T08:23:20;1.67;;;0.50;;
47009;SDS011;59230;54.164;-3.124;2022-09-16T08:25:47;1.77;;;0.63;;
47009;SDS011;59230;54.164;-3.124;2022-09-16T08:28:40;0.98;;;0.40;;
47009;SDS011;59230;54.164;-3.124;2022-09-16T08:31:08;0.30;;;0.30;;
47009;SDS011;59230;54.164;-3.124;2022-09-16T08:33:34;1.92;;;0.30;;
47009;SDS011;59230;54.164;-3.124;2022-09-16T08:36:21;1.52;;;0.52;;
47009;SDS011;59230;54.164;-3.124;2022-09-16T08:38:49;1.17;;;0.30;;
47009;SDS011;59230;54.164;-3.124;2022-09-16T08:46:51;1.67;;;0.40;;
47009;SDS011;59230;54.164;-3.124;2022-09-16T08:49:40;1.45;;;0.32;;
47009;SDS011;59230;54.164;-3.124;2022-09-16T08:52:09;0.40;;;0.30;;
47009;SDS011;59230;54.164;-3.124;2022-09-16T08:54:39;1.55;;;0.30;;
47009;SDS011;59230;54.164;-3.124;2022-09-16T08:57:18;0.63;;;0.40;;
47009;SDS011;59230;54.164;-3.124;2022-09-16T08:59:47;0.68;;;0.40;;
47009;SDS011;59230;54.164;-3.124;2022-09-16T09:05:14;0.77;;;0.30;;
47009;SDS011;59230;54.164;-3.124;2022-09-16T09:12:53;2.40;;;0.30;;
47009;SDS011;59230;54.164;-3.124;2022-09-16T09:26:03;2.25;;;0.30;;
47009;SDS011;59230;54.164;-3.124;2022-09-16T09:34:15;1.58;;;0.30;;
47009;SDS011;59230;54.164;-3.124;2022-09-16T09:42:32;0.70;;;0.30;;
47009;SDS011;59230;54.164;-3.124;2022-09-16T09:48:22;0.60;;;0.30;;
47009;SDS011;59230;54.164;-3.124;2022-09-16T09:50:51;0.30;;;0.30;;
47009;SDS011;59230;54.164;-3.124;2022-09-16T09:53:24;2.92;;;0.63;;
47009;SDS011;59230;54.164;-3.124;2022-09-16T10:01:18;0.95;;;0.20;;
47009;SDS011;59230;54.164;-3.124;2022-09-16T10:03:44;3.45;;;0.50;;
47009;SDS011;59230;54.164;-3.124;2022-09-16T10:06:10;0.93;;;0.47;;
47009;SDS011;59230;54.164;-3.124;2022-09-16T10:08:49;1.48;;;0.60;;
47009;SDS011;59230;54.164;-3.124;2022-09-16T10:18:07;1.65;;;0.30;;
47009;SDS011;59230;54.164;-3.124;2022-09-16T10:20:37;0.52;;;0.30;;
47009;SDS011;59230;54.164;-3.124;2022-09-16T10:23:05;2.25;;;0.77;;
47009;SDS011;59230;54.164;-3.124;2022-09-16T10:25:33;1.70;;;0.35;;
47009;SDS011;59230;54.164;-3.124;2022-09-16T10:28:04;0.82;;;0.40;;
47009;SDS011;59230;54.164;-3.124;2022-09-16T10:30:31;1.05;;;0.73;;
47009;SDS011;59230;54.164;-3.124;2022-09-16T10:33:11;0.60;;;0.40;;
47009;SDS011;59230;54.164;-3.124;2022-09-16T10:35:49;1.23;;;0.38;;
47009;SDS011;59230;54.164;-3.124;2022-09-16T10:38:20;3.10;;;0.60;;
47009;SDS011;59230;54.164;-3.124;2022-09-16T10:40:53;1.20;;;0.40;;
47009;SDS011;59230;54.164;-3.124;2022-09-16T10:45:49;2.67;;;0.47;;
47009;SDS011;59230;54.164;-3.124;2022-09-16T10:48:22;2.70;;;0.60;;
47009;SDS011;59230;54.164;-3.124;2022-09-16T10:54:44;0.75;;;0.40;;
47009;SDS011;59230;54.164;-3.124;2022-09-16T10:57:21;2.03;;;0.43;;
47009;SDS011;59230;54.164;-3.124;2022-09-16T11:06:46;1.67;;;0.40;;
47009;SDS011;59230;54.164;-3.124;2022-09-16T11:09:19;1.83;;;0.40;;
47009;SDS011;59230;54.164;-3.124;2022-09-16T11:14:57;1.40;;;0.40;;
47009;SDS011;59230;54.164;-3.124;2022-09-16T11:17:43;4.85;;;0.50;;
47009;SDS011;59230;54.164;-3.124;2022-09-16T11:20:42;2.85;;;0.50;;
47009;SDS011;59230;54.164;-3.124;2022-09-16T11:26:09;4.38;;;0.50;;
47009;SDS011;59230;54.164;-3.124;2022-09-16T11:28:49;1.83;;;0.40;;
47009;SDS011;59230;54.164;-3.124;2022-09-16T11:37:05;4.60;;;0.95;;
47009;SDS011;59230;54.164;-3.124;2022-09-16T11:42:33;2.30;;;0.70;;
47009;SDS011;59230;54.164;-3.124;2022-09-16T11:50:50;3.70;;;0.57;;
47009;SDS011;59230;54.164;-3.124;2022-09-16T11:56:17;0.70;;;0.40;;
47009;SDS011;59230;54.164;-3.124;2022-09-16T12:05:01;0.80;;;0.50;;
47009;SDS011;59230;54.164;-3.124;2022-09-16T12:07:34;1.88;;;0.60;;
47009;SDS011;59230;54.164;-3.124;2022-09-16T12:10:04;1.25;;;0.60;;
47009;SDS011;59230;54.164;-3.124;2022-09-16T12:12:41;0.98;;;0.50;;
47009;SDS011;59230;54.164;-3.124;2022-09-16T12:18:30;3.40;;;0.60;;
47009;SDS011;59230;54.164;-3.124;2022-09-16T12:20:40;1.02;;;0.60;;
47009;SDS011;59230;54.164;-3.124;2022-09-16T12:23:11;3.85;;;0.70;;
47009;SDS011;59230;54.164;-3.124;2022-09-16T12:26:06;1.75;;;0.80;;
47009;SDS011;59230;54.164;-3.124;2022-09-16T12:28:43;1.73;;;0.40;;
47009;SDS011;59230;54.164;-3.124;2022-09-16T12:31:45;2.30;;;0.95;;
47009;SDS011;59230;54.164;-3.124;2022-09-16T12:34:18;2.47;;;0.70;;
47009;SDS011;59230;54.164;-3.124;2022-09-16T12:36:48;2.70;;;0.60;;
47009;SDS011;59230;54.164;-3.124;2022-09-16T12:39:23;5.40;;;0.52;;
47009;SDS011;59230;54.164;-3.124;2022-09-16T12:47:31;1.23;;;0.47;;
47009;SDS011;59230;54.164;-3.124;2022-09-16T12:52:44;3.33;;;0.88;;
47009;SDS011;59230;54.164;-3.124;2022-09-16T13:02:51;4.45;;;0.52;;
47009;SDS011;59230;54.164;-3.124;2022-09-16T13:05:37;1.40;;;0.52;;
47009;SDS011;59230;54.164;-3.124;2022-09-16T13:08:04;2.03;;;0.60;;
47009;SDS011;59230;54.164;-3.124;2022-09-16T13:10:36;2.03;;;0.63;;
47009;SDS011;59230;54.164;-3.124;2022-09-16T13:13:03;0.63;;;0.30;;
47009;SDS011;59230;54.164;-3.124;2022-09-16T13:15:35;3.47;;;0.50;;
47009;SDS011;59230;54.164;-3.124;2022-09-16T13:18:06;2.58;;;0.57;;
47009;SDS011;59230;54.164;-3.124;2022-09-16T13:20:34;2.00;;;0.50;;
47009;SDS011;59230;54.164;-3.124;2022-09-16T13:23:11;4.32;;;0.40;;
47009;SDS011;59230;54.164;-3.124;2022-09-16T13:33:42;4.80;;;1.30;;
47009;SDS011;59230;54.164;-3.124;2022-09-16T13:38:55;3.33;;;0.47;;
47009;SDS011;59230;54.164;-3.124;2022-09-16T13:41:32;0.88;;;0.50;;
47009;SDS011;59230;54.164;-3.124;2022-09-16T13:44:00;2.08;;;0.52;;
47009;SDS011;59230;54.164;-3.124;2022-09-16T13:51:39;1.63;;;0.40;;
47009;SDS011;59230;54.164;-3.124;2022-09-16T13:54:17;1.98;;;0.50;;
47009;SDS011;59230;54.164;-3.124;2022-09-16T13:57:00;1.63;;;0.50;;
47009;SDS011;59230;54.164;-3.124;2022-09-16T14:07:55;2.88;;;0.40;;
47009;SDS011;59230;54.164;-3.124;2022-09-16T14:13:35;1.08;;;0.40;;
47009;SDS011;59230;54.164;-3.124;2022-09-16T14:16:03;0.60;;;0.40;;
47009;SDS011;59230;54.164;-3.124;2022-09-16T14:18:36;2.42;;;0.60;;
47009;SDS011;59230;54.164;-3.124;2022-09-16T14:21:15;1.02;;;0.47;;
47009;SDS011;59230;54.164;-3.124;2022-09-16T14:23:43;2.78;;;0.52;;
47009;SDS011;59230;54.164;-3.124;2022-09-16T14:26:09;2.28;;;0.40;;
47009;SDS011;59230;54.164;-3.124;2022-09-16T14:28:42;4.18;;;0.43;;
47009;SDS011;59230;54.164;-3.124;2022-09-16T14:31:29;4.80;;;0.40;;
47009;SDS011;59230;54.164;-3.124;2022-09-16T14:33:58;1.27;;;0.60;;
47009;SDS011;59230;54.164;-3.124;2022-09-16T14:36:34;2.35;;;0.50;;
47009;SDS011;59230;54.164;-3.124;2022-09-16T14:46:43;3.92;;;0.60;;
47009;SDS011;59230;54.164;-3.124;2022-09-16T14:49:11;1.67;;;0.60;;
47009;SDS011;59230;54.164;-3.124;2022-09-16T14:51:38;2.63;;;0.40;;
47009;SDS011;59230;54.164;-3.124;2022-09-16T14:54:14;2.22;;;0.60;;
47009;SDS011;59230;54.164;-3.124;2022-09-16T14:56:41;4.32;;;0.40;;
47009;SDS011;59230;54.164;-3.124;2022-09-16T14:59:08;1.75;;;0.50;;
47009;SDS011;59230;54.164;-3.124;2022-09-16T15:01:35;1.27;;;0.57;;
47009;SDS011;59230;54.164;-3.124;2022-09-16T15:04:02;2.28;;;0.65;;
47009;SDS011;59230;54.164;-3.124;2022-09-16T15:06:32;2.10;;;0.68;;
47009;SDS011;59230;54.164;-3.124;2022-09-16T15:11:31;1.88;;;0.50;;
47009;SDS011;59230;54.164;-3.124;2022-09-16T15:13:58;1.73;;;0.73;;
47009;SDS011;59230;54.164;-3.124;2022-09-16T15:16:24;1.88;;;0.40;;
47009;SDS011;59230;54.164;-3.124;2022-09-16T15:18:55;0.70;;;0.30;;
47009;SDS011;59230;54.164;-3.124;2022-09-16T15:24:00;3.92;;;0.52;;
47009;SDS011;59230;54.164;-3.124;2022-09-16T15:29:03;4.15;;;0.80;;
47009;SDS011;59230;54.164;-3.124;2022-09-16T15:31:32;3.13;;;0.40;;
47009;SDS011;59230;54.164;-3.124;2022-09-16T15:34:25;0.98;;;0.50;;
47009;SDS011;59230;54.164;-3.124;2022-09-16T15:42:12;1.80;;;0.60;;
47009;SDS011;59230;54.164;-3.124;2022-09-16T15:50:15;2.80;;;0.80;;
47009;SDS011;59230;54.164;-3.124;2022-09-16T15:55:12;3.78;;;0.43;;
47009;SDS011;59230;54.164;-3.124;2022-09-16T15:57:38;2.67;;;0.65;;
47009;SDS011;59230;54.164;-3.124;2022-09-16T16:00:10;1.92;;;0.57;;
47009;SDS011;59230;54.164;-3.124;2022-09-16T16:02:52;1.15;;;0.50;;
47009;SDS011;59230;54.164;-3.124;2022-09-16T16:05:29;1.27;;;0.50;;
47009;SDS011;59230;54.164;-3.124;2022-09-16T16:11:38;2.00;;;0.50;;
47009;SDS011;59230;54.164;-3.124;2022-09-16T16:14:14;2.47;;;0.52;;
47009;SDS011;59230;54.164;-3.124;2022-09-16T16:16:40;5.20;;;0.70;;
47009;SDS011;59230;54.164;-3.124;2022-09-16T16:19:05;6.78;;;1.00;;
47009;SDS011;59230;54.164;-3.124;2022-09-16T16:25:00;5.53;;;0.60;;
47009;SDS011;59230;54.164;-3.124;2022-09-16T16:27:26;1.27;;;0.50;;
47009;SDS011;59230;54.164;-3.124;2022-09-16T16:29:52;1.30;;;0.43;;
47009;SDS011;59230;54.164;-3.124;2022-09-16T16:32:20;4.43;;;0.60;;
47009;SDS011;59230;54.164;-3.124;2022-09-16T16:34:48;3.03;;;0.65;;
47009;SDS011;59230;54.164;-3.124;2022-09-16T16:37:17;2.95;;;0.80;;
47009;SDS011;59230;54.164;-3.124;2022-09-16T16:39:45;4.38;;;0.60;;
47009;SDS011;59230;54.164;-3.124;2022-09-16T16:42:14;3.35;;;0.80;;
47009;SDS011;59230;54.164;-3.124;2022-09-16T16:44:43;0.45;;;0.38;;
47009;SDS011;59230;54.164;-3.124;2022-09-16T16:47:09;2.45;;;0.65;;
47009;SDS011;59230;54.164;-3.124;2022-09-16T16:49:35;1.92;;;0.60;;
47009;SDS011;59230;54.164;-3.124;2022-09-16T16:52:06;1.37;;;0.47;;
47009;SDS011;59230;54.164;-3.124;2022-09-16T16:54:35;1.73;;;0.50;;
47009;SDS011;59230;54.164;-3.124;2022-09-16T16:57:01;1.90;;;0.55;;
47009;SDS011;59230;54.164;-3.124;2022-09-16T16:59:28;5.22;;;0.90;;
47009;SDS011;59230;54.164;-3.124;2022-09-16T17:02:13;2.40;;;0.65;;
47009;SDS011;59230;54.164;-3.124;2022-09-16T17:04:39;1.77;;;0.60;;
47009;SDS011;59230;54.164;-3.124;2022-09-16T17:07:05;2.15;;;0.50;;
47009;SDS011;59230;54.164;-3.124;2022-09-16T17:09:30;2.20;;;0.47;;
47009;SDS011;59230;54.164;-3.124;2022-09-16T17:11:56;3.88;;;0.70;;
47009;SDS011;59230;54.164;-3.124;2022-09-16T17:14:24;1.17;;;0.50;;
47009;SDS011;59230;54.164;-3.124;2022-09-16T17:16:52;2.60;;;0.50;;
47009;SDS011;59230;54.164;-3.124;2022-09-16T17:19:19;3.30;;;0.70;;
47009;SDS011;59230;54.164;-3.124;2022-09-16T17:21:45;1.75;;;0.43;;
47009;SDS011;59230;54.164;-3.124;2022-09-16T17:24:11;5.50;;;0.70;;
47009;SDS011;59230;54.164;-3.124;2022-09-16T17:26:37;1.55;;;0.50;;
47009;SDS011;59230;54.164;-3.124;2022-09-16T17:29:03;1.67;;;0.63;;
47009;SDS011;59230;54.164;-3.124;2022-09-16T17:31:29;3.13;;;0.70;;
47009;SDS011;59230;54.164;-3.124;2022-09-16T17:33:57;1.73;;;0.45;;
47009;SDS011;59230;54.164;-3.124;2022-09-16T17:36:27;6.43;;;0.70;;
47009;SDS011;59230;54.164;-3.124;2022-09-16T17:38:56;3.55;;;0.80;;
47009;SDS011;59230;54.164;-3.124;2022-09-16T17:41:22;4.28;;;0.60;;
47009;SDS011;59230;54.164;-3.124;2022-09-16T17:43:51;4.00;;;0.73;;
47009;SDS011;59230;54.164;-3.124;2022-09-16T17:46:17;3.53;;;0.70;;
47009;SDS011;59230;54.164;-3.124;2022-09-16T17:48:44;5.03;;;1.83;;
47009;SDS011;59230;54.164;-3.124;2022-09-16T17:51:10;10.18;;;6.32;;
47009;SDS011;59230;54.164;-3.124;2022-09-16T17:53:36;14.70;;;7.32;;
47009;SDS011;59230;54.164;-3.124;2022-09-16T17:56:09;7.50;;;3.30;;
47009;SDS011;59230;54.164;-3.124;2022-09-16T17:58:37;3.97;;;1.38;;
47009;SDS011;59230;54.164;-3.124;2022-09-16T18:01:11;3.88;;;1.05;;
47009;SDS011;59230;54.164;-3.124;2022-09-16T18:03:38;7.40;;;1.40;;
47009;SDS011;59230;54.164;-3.124;2022-09-16T18:08:44;6.65;;;2.03;;
47009;SDS011;59230;54.164;-3.124;2022-09-16T18:11:11;15.57;;;4.18;;
47009;SDS011;59230;54.164;-3.124;2022-09-16T18:13:37;13.13;;;5.63;;
47009;SDS011;59230;54.164;-3.124;2022-09-16T18:16:04;10.45;;;4.47;;
47009;SDS011;59230;54.164;-3.124;2022-09-16T18:18:31;9.90;;;3.53;;
47009;SDS011;59230;54.164;-3.124;2022-09-16T18:20:57;19.75;;;5.07;;
47009;SDS011;59230;54.164;-3.124;2022-09-16T18:23:22;12.73;;;4.45;;
47009;SDS011;59230;54.164;-3.124;2022-09-16T18:25:48;14.38;;;5.45;;
47009;SDS011;59230;54.164;-3.124;2022-09-16T18:28:14;7.30;;;2.97;;
47009;SDS011;59230;54.164;-3.124;2022-09-16T18:30:40;6.32;;;2.22;;
47009;SDS011;59230;54.164;-3.124;2022-09-16T18:33:07;2.05;;;1.20;;
47009;SDS011;59230;54.164;-3.124;2022-09-16T18:35:33;2.97;;;1.20;;
47009;SDS011;59230;54.164;-3.124;2022-09-16T18:38:02;5.80;;;1.13;;
47009;SDS011;59230;54.164;-3.124;2022-09-16T18:40:28;3.95;;;0.80;;
47009;SDS011;59230;54.164;-3.124;2022-09-16T18:42:54;4.95;;;1.20;;
47009;SDS011;59230;54.164;-3.124;2022-09-16T18:45:19;11.95;;;0.77;;